createdAt,value
2017-09-04T00:04:16.483Z,3.33
2017-09-04T00:09:22.309Z,3.90
2017-09-04T00:14:29.015Z,4.10
2017-09-04T00:24:48.594Z,6.73
2017-09-04T00:29:57.478Z,6.10
2017-09-04T00:35:11.439Z,7.13
2017-09-04T00:40:17.958Z,7.90
2017-09-04T00:45:26.970Z,7.23
2017-09-04T00:50:35.110Z,6.10
2017-09-04T00:55:44.328Z,7.40
2017-09-04T01:00:55.278Z,6.87
2017-09-04T01:05:59.735Z,6.10
2017-09-04T01:11:04.483Z,6.23
2017-09-04T01:16:10.626Z,5.30
2017-09-04T01:21:15.327Z,5.40
2017-09-04T01:26:21.251Z,4.53
2017-09-04T01:31:26.036Z,4.77
2017-09-04T01:36:30.510Z,5.50
2017-09-04T01:41:34.260Z,7.00
2017-09-04T01:46:37.289Z,7.00
2017-09-04T01:51:43.351Z,6.73
2017-09-04T01:56:49.460Z,5.20
2017-09-04T02:01:52.941Z,6.10
2017-09-04T02:06:57.733Z,7.83
2017-09-04T02:12:01.617Z,7.37
2017-09-04T02:17:09.559Z,7.70
2017-09-04T02:22:14.323Z,13.37
2017-09-04T02:27:22.076Z,12.60
2017-09-04T02:32:27.082Z,10.17
2017-09-04T02:37:31.463Z,12.10
2017-09-04T02:42:34.788Z,9.67
2017-09-04T02:47:39.000Z,8.97
2017-09-04T02:52:49.701Z,8.73
2017-09-04T02:57:57.840Z,10.30
2017-09-04T03:03:03.194Z,9.90
2017-09-04T03:08:07.857Z,9.43
2017-09-04T03:13:13.347Z,9.50
2017-09-04T03:18:16.478Z,13.47
2017-09-04T03:23:22.442Z,11.40
2017-09-04T03:28:31.087Z,11.80
2017-09-04T03:33:37.423Z,9.97
2017-09-04T03:38:48.488Z,9.10
2017-09-04T03:43:53.766Z,11.27
2017-09-04T03:48:58.480Z,12.03
2017-09-04T03:54:04.331Z,12.73
2017-09-04T03:59:07.629Z,11.17
2017-09-04T04:04:14.921Z,10.53
2017-09-04T04:09:20.240Z,10.83
2017-09-04T04:14:26.416Z,9.80
2017-09-04T04:19:30.646Z,11.80
2017-09-04T04:24:34.664Z,10.93
2017-09-04T04:29:39.579Z,14.17
2017-09-04T04:34:47.220Z,12.90
2017-09-04T04:39:54.450Z,13.83
2017-09-04T04:44:58.603Z,14.53
2017-09-04T04:50:03.997Z,14.67
2017-09-04T04:55:09.761Z,13.53
2017-09-04T05:00:13.109Z,13.77
2017-09-04T05:05:16.819Z,16.27
2017-09-04T05:10:20.730Z,14.10
2017-09-04T05:15:23.852Z,14.20
2017-09-04T05:20:27.091Z,13.90
2017-09-04T05:25:31.668Z,14.47
2017-09-04T05:30:35.325Z,14.43
2017-09-04T05:35:40.329Z,15.93
2017-09-04T05:40:44.562Z,16.73
2017-09-04T05:45:47.751Z,15.97
2017-09-04T05:50:50.937Z,15.90
2017-09-04T05:55:55.121Z,18.80
2017-09-04T06:01:00.050Z,15.30
2017-09-04T06:06:04.129Z,14.40
2017-09-04T06:11:08.651Z,15.97
2017-09-04T06:16:15.230Z,16.87
2017-09-04T06:21:22.346Z,14.70
2017-09-04T06:26:26.995Z,15.77
2017-09-04T06:31:30.086Z,15.13
2017-09-04T06:36:33.798Z,15.20
2017-09-04T06:41:36.958Z,14.60
2017-09-04T06:46:42.421Z,14.90
2017-09-04T06:51:45.646Z,17.77
2017-09-04T06:56:52.976Z,17.83
2017-09-04T07:01:56.217Z,16.90
2017-09-04T07:06:59.509Z,15.67
2017-09-04T07:12:03.491Z,14.87
2017-09-04T07:17:08.784Z,15.17
2017-09-04T07:22:15.564Z,16.33
2017-09-04T07:27:19.966Z,17.60
2017-09-04T07:32:26.892Z,18.03
2017-09-04T07:37:30.461Z,16.00
2017-09-04T07:42:37.340Z,16.77
2017-09-04T07:47:41.816Z,16.10
2017-09-04T07:52:46.390Z,15.60
2017-09-04T07:57:50.093Z,15.80
2017-09-04T08:02:53.424Z,18.23
2017-09-04T08:07:57.865Z,17.60
2017-09-04T08:13:01.666Z,17.60
2017-09-04T08:18:07.515Z,20.77
2017-09-04T08:23:14.906Z,19.30
2017-09-04T08:28:20.775Z,21.23
2017-09-04T08:33:27.087Z,19.90
2017-09-04T08:38:30.285Z,20.87
2017-09-04T08:43:34.390Z,23.77
2017-09-04T08:48:39.322Z,25.63
2017-09-04T08:53:43.266Z,23.97
2017-09-04T08:58:47.062Z,23.57
2017-09-04T09:03:51.323Z,24.30
2017-09-04T09:08:55.132Z,25.00
2017-09-04T09:13:59.311Z,25.57
2017-09-04T09:19:03.143Z,25.50
2017-09-04T09:24:11.328Z,22.33
2017-09-04T09:29:15.157Z,23.67
2017-09-04T09:34:18.770Z,21.40
2017-09-04T09:39:22.650Z,23.50
2017-09-04T09:44:25.772Z,22.10
2017-09-04T09:49:32.026Z,20.20
2017-09-04T09:54:36.970Z,22.20
2017-09-04T10:04:51.642Z,22.37
2017-09-04T10:10:00.287Z,21.00
2017-09-04T10:15:09.519Z,22.20
2017-09-04T10:20:15.804Z,21.10
2017-09-04T10:25:22.407Z,19.40
2017-09-04T10:30:28.067Z,19.00
2017-09-04T10:35:34.623Z,18.10
2017-09-04T10:40:44.734Z,18.40
2017-09-04T10:45:53.310Z,16.40
2017-09-04T10:56:19.777Z,19.07
2017-09-04T11:11:57.085Z,17.93
2017-09-04T11:17:07.070Z,16.30
2017-09-04T11:27:42.284Z,15.57
2017-09-04T11:32:50.228Z,13.50
2017-09-04T11:43:13.844Z,10.10
2017-09-04T11:48:20.360Z,9.33
2017-09-04T11:58:41.116Z,8.97
2017-09-04T12:03:47.588Z,6.83
2017-09-04T12:14:20.470Z,5.80
2017-09-04T12:24:47.135Z,4.40
2017-09-04T12:30:06.736Z,4.23
2017-09-04T12:40:21.405Z,3.20
2017-09-04T12:50:41.826Z,3.43
2017-09-04T12:55:54.131Z,2.90
2017-09-04T13:01:05.975Z,1.93
2017-09-04T13:06:15.595Z,2.97
2017-09-04T13:11:35.603Z,2.70
2017-09-04T13:22:18.787Z,2.67
2017-09-04T13:27:30.206Z,2.37
2017-09-04T13:32:39.228Z,2.67
2017-09-04T13:37:49.615Z,2.50
2017-09-04T13:48:46.246Z,1.90
2017-09-04T13:53:58.343Z,3.10
2017-09-04T13:59:10.286Z,2.20
2017-09-04T14:04:34.591Z,1.90
2017-09-04T14:09:43.437Z,2.57
2017-09-04T14:19:58.775Z,2.63
2017-09-04T14:25:04.332Z,2.60
2017-09-04T14:30:09.153Z,2.10
2017-09-04T14:46:41.539Z,2.20
2017-09-04T14:56:56.554Z,2.80
2017-09-04T15:02:03.611Z,2.20
2017-09-04T15:12:20.383Z,2.80
2017-09-04T15:17:28.772Z,2.37
2017-09-04T15:22:35.022Z,2.70
2017-09-04T15:32:59.250Z,2.30
2017-09-04T15:38:05.166Z,2.87
2017-09-04T15:43:09.739Z,2.87
2017-09-04T15:48:13.091Z,2.30
2017-09-04T15:53:17.245Z,2.80
2017-09-04T15:58:21.263Z,2.93
2017-09-04T16:03:24.500Z,2.30
2017-09-04T16:08:28.664Z,3.27
2017-09-04T16:13:34.979Z,2.67
2017-09-04T16:18:50.839Z,2.60
2017-09-04T16:29:36.851Z,2.20
2017-09-04T16:40:21.455Z,2.20
2017-09-04T16:45:45.909Z,2.70
2017-09-04T16:51:04.829Z,3.30
2017-09-04T16:56:13.858Z,2.43
2017-09-04T17:01:17.566Z,6.00
2017-09-04T17:06:21.953Z,2.13
2017-09-04T17:21:59.645Z,2.70
2017-09-04T17:27:06.983Z,3.43
2017-09-04T17:32:12.616Z,3.20
2017-09-04T17:37:19.479Z,3.20
2017-09-04T17:42:25.665Z,5.10
2017-09-04T17:47:33.657Z,2.90
2017-09-04T17:52:37.692Z,3.10
2017-09-04T17:57:43.668Z,2.90
2017-09-04T18:02:48.377Z,2.50
2017-09-04T18:07:55.250Z,3.73
2017-09-04T18:13:03.393Z,2.87
2017-09-04T18:18:07.480Z,3.57
2017-09-04T18:23:13.949Z,3.10
2017-09-04T18:28:22.128Z,3.17
2017-09-04T18:33:26.293Z,3.20
2017-09-04T18:38:32.247Z,3.50
2017-09-04T18:43:39.018Z,3.00
2017-09-04T18:48:43.030Z,3.33
2017-09-04T18:53:47.802Z,3.13
2017-09-04T18:58:54.139Z,2.40
2017-09-04T19:09:12.473Z,3.23
2017-09-04T19:14:19.251Z,3.37
2017-09-04T19:19:26.204Z,3.90
2017-09-04T19:24:30.602Z,3.40
2017-09-04T19:29:39.276Z,3.77
2017-09-04T19:34:45.528Z,3.20
2017-09-04T19:39:50.718Z,3.50
2017-09-04T19:50:11.981Z,2.90
2017-09-04T19:55:17.650Z,3.30
2017-09-04T20:00:21.428Z,3.43
2017-09-04T20:05:27.490Z,3.77
2017-09-04T20:10:33.273Z,3.70
2017-09-04T20:15:39.304Z,3.53
2017-09-04T20:20:44.343Z,3.93
2017-09-04T20:25:51.909Z,4.73
2017-09-04T20:30:58.580Z,3.47
2017-09-04T20:36:02.628Z,3.50
2017-09-04T20:41:07.712Z,4.10
2017-09-04T20:46:13.435Z,4.03
2017-09-04T20:51:17.523Z,3.93
2017-09-04T20:56:21.935Z,3.60
2017-09-04T21:01:25.706Z,4.00
2017-09-04T21:06:32.428Z,3.43
2017-09-04T21:11:40.478Z,3.53
2017-09-04T21:16:49.941Z,4.27
2017-09-04T21:21:54.583Z,3.80
2017-09-04T21:26:58.958Z,4.03
2017-09-04T21:32:04.163Z,4.30
2017-09-04T21:37:08.450Z,5.00
2017-09-04T21:42:16.625Z,3.50
2017-09-04T21:47:26.887Z,3.90
2017-09-04T21:52:34.788Z,4.00
2017-09-04T21:57:42.533Z,3.93
2017-09-04T22:08:12.429Z,4.10
2017-09-04T22:13:17.174Z,4.57
2017-09-04T22:18:23.034Z,3.43
2017-09-04T22:28:42.217Z,5.13
2017-09-04T22:33:46.905Z,4.00
2017-09-04T22:38:54.095Z,3.77
2017-09-04T22:43:58.939Z,3.83
2017-09-04T22:49:10.356Z,4.50
2017-09-04T22:54:18.468Z,4.10
2017-09-04T22:59:22.325Z,4.13
2017-09-04T23:04:27.072Z,3.90
2017-09-04T23:09:32.433Z,3.73
2017-09-04T23:14:40.040Z,3.57
2017-09-04T23:19:45.462Z,3.90
2017-09-04T23:24:50.721Z,3.70
2017-09-04T23:29:58.623Z,4.30
2017-09-04T23:35:04.565Z,4.07
2017-09-04T23:40:15.265Z,3.80
2017-09-04T23:45:24.458Z,4.37
2017-09-04T23:50:35.804Z,4.33
2017-09-04T23:55:38.853Z,4.40
